Time;durP1;ratioP1;P1;durP2;ratioP2;P2;SDS_P1;SDS_P2;PMS_P1;PMS_P2;Temp;Humidity;BMP_temperature;BMP_pressure;BME280_temperature;BME280_humidity;BME280_pressure;Samples;Min_cycle;Max_cycle;Signal;HPM_P1;HPM_P2
2022/05/30 00:00:09;;;;;;;13.45;4.32;;;;;;;;;;5022222;28;20036;-68
2022/05/30 00:02:36;;;;;;;10.77;3.50;;;;;;;;;;5042324;28;20464;-68
2022/05/30 00:05:05;;;;;;;9.90;3.83;;;;;;;;;;5028909;28;20024;-68
2022/05/30 00:07:33;;;;;;;9.43;3.45;;;;;;;;;;5037081;28;20090;-68
2022/05/30 00:10:00;;;;;;;10.27;3.60;;;;;;;;;;5041409;28;20031;-67
2022/05/30 00:12:28;;;;;;;10.32;3.90;;;;;;;;;;5036731;28;20040;-68
2022/05/30 00:14:57;;;;;;;8.38;3.22;;;;;;;;;;5046447;28;20550;-67
2022/05/30 00:17:24;;;;;;;15.88;3.75;;;;;;;;;;5037217;28;20993;-68
2022/05/30 00:19:51;;;;;;;14.13;3.95;;;;;;;;;;5036035;28;20082;-68
2022/05/30 00:22:19;;;;;;;11.90;4.55;;;;;;;;;;5057161;28;20028;-70
2022/05/30 00:24:45;;;;;;;16.45;5.05;;;;;;;;;;5060401;28;20461;-67
2022/05/30 00:27:13;;;;;;;10.43;4.13;;;;;;;;;;5056414;28;20073;-69
2022/05/30 00:29:43;;;;;;;10.57;3.72;;;;;;;;;;5046166;28;20535;-67
2022/05/30 00:32:21;;;;;;;11.55;3.67;;;;;;;;;;5024480;28;20044;-69
2022/05/30 00:34:49;;;;;;;10.93;3.47;;;;;;;;;;5036465;28;20085;-69
2022/05/30 00:37:16;;;;;;;9.43;3.63;;;;;;;;;;5017652;28;20616;-71
2022/05/30 00:39:44;;;;;;;10.63;4.00;;;;;;;;;;5012483;28;20076;-71
2022/05/30 00:42:14;;;;;;;11.60;4.15;;;;;;;;;;4971175;28;20049;-71
2022/05/30 00:44:48;;;;;;;12.13;4.97;;;;;;;;;;5021860;28;20084;-70
2022/05/30 00:47:17;;;;;;;13.10;4.95;;;;;;;;;;5019623;28;20028;-70
2022/05/30 00:49:45;;;;;;;11.75;4.30;;;;;;;;;;5022420;28;20682;-70
2022/05/30 00:52:17;;;;;;;10.82;4.30;;;;;;;;;;5000984;28;20136;-70
2022/05/30 00:54:52;;;;;;;12.05;4.13;;;;;;;;;;4997134;28;20040;-72
2022/05/30 00:57:21;;;;;;;12.73;4.25;;;;;;;;;;4983956;28;20084;-72
2022/05/30 00:59:55;;;;;;;12.27;3.97;;;;;;;;;;5001367;28;20386;-72
2022/05/30 01:02:25;;;;;;;12.32;3.53;;;;;;;;;;5016336;28;20580;-73
2022/05/30 01:07:41;;;;;;;13.07;4.60;;;;;;;;;;5009689;28;20394;-72
2022/05/30 01:10:13;;;;;;;10.02;4.00;;;;;;;;;;5014133;28;20679;-70
2022/05/30 01:12:52;;;;;;;10.90;3.95;;;;;;;;;;5004703;28;20224;-70
2022/05/30 01:15:25;;;;;;;10.05;3.67;;;;;;;;;;4995693;28;20038;-70
2022/05/30 01:18:13;;;;;;;11.68;3.83;;;;;;;;;;5012846;28;20547;-70
2022/05/30 01:20:46;;;;;;;11.57;3.30;;;;;;;;;;5009413;28;20123;-70
2022/05/30 01:23:32;;;;;;;9.57;2.90;;;;;;;;;;4979561;28;20407;-70
2022/05/30 01:26:17;;;;;;;9.68;3.60;;;;;;;;;;5006305;28;20518;-70
2022/05/30 01:29:08;;;;;;;11.38;3.72;;;;;;;;;;5036988;28;20102;-70
2022/05/30 01:31:35;;;;;;;10.90;3.45;;;;;;;;;;5045976;28;20041;-70
2022/05/30 01:34:05;;;;;;;11.60;3.45;;;;;;;;;;5056746;28;20040;-67
2022/05/30 01:36:34;;;;;;;9.52;2.78;;;;;;;;;;5045820;28;20020;-67
2022/05/30 01:39:02;;;;;;;8.60;3.10;;;;;;;;;;5030483;28;20071;-67
2022/05/30 01:41:30;;;;;;;9.32;2.92;;;;;;;;;;5045153;28;20024;-68
2022/05/30 01:44:00;;;;;;;10.73;3.50;;;;;;;;;;5048027;28;20051;-67
2022/05/30 01:46:27;;;;;;;13.05;3.55;;;;;;;;;;5043589;28;20060;-66
2022/05/30 01:48:54;;;;;;;8.75;3.08;;;;;;;;;;5044912;28;20938;-66
2022/05/30 01:51:22;;;;;;;10.38;3.40;;;;;;;;;;5025033;28;20386;-69
2022/05/30 01:53:52;;;;;;;8.90;3.38;;;;;;;;;;5026909;28;20466;-67
2022/05/30 01:56:21;;;;;;;9.88;3.05;;;;;;;;;;5008908;28;20083;-68
2022/05/30 01:58:49;;;;;;;9.68;3.50;;;;;;;;;;5043037;28;20024;-68
2022/05/30 02:01:19;;;;;;;11.38;3.65;;;;;;;;;;5045753;28;20075;-68
2022/05/30 02:03:48;;;;;;;9.02;3.40;;;;;;;;;;5025385;28;20033;-67
2022/05/30 02:06:16;;;;;;;10.07;3.38;;;;;;;;;;5045812;28;20778;-69
2022/05/30 02:08:51;;;;;;;10.43;3.55;;;;;;;;;;5031068;28;20668;-69
2022/05/30 02:11:19;;;;;;;12.77;4.05;;;;;;;;;;5043182;28;20032;-67
2022/05/30 02:13:51;;;;;;;12.60;3.70;;;;;;;;;;5031357;28;20064;-67
2022/05/30 02:19:03;;;;;;;11.88;4.30;;;;;;;;;;5044441;28;20118;-67
2022/05/30 02:21:32;;;;;;;10.38;3.70;;;;;;;;;;5056673;28;20152;-66
2022/05/30 02:24:00;;;;;;;10.00;3.58;;;;;;;;;;5043565;28;20497;-67
2022/05/30 02:26:31;;;;;;;14.05;5.13;;;;;;;;;;5025172;28;20043;-68
2022/05/30 02:28:58;;;;;;;15.25;4.80;;;;;;;;;;4996757;28;20471;-69
2022/05/30 02:31:28;;;;;;;11.93;4.45;;;;;;;;;;5061960;28;20433;-67
2022/05/30 02:36:44;;;;;;;11.85;5.20;;;;;;;;;;5065632;28;20451;-66
2022/05/30 02:39:23;;;;;;;12.75;5.47;;;;;;;;;;5062146;28;20453;-67
2022/05/30 02:41:50;;;;;;;12.68;5.63;;;;;;;;;;5049756;28;20036;-67
2022/05/30 02:44:19;;;;;;;13.77;6.20;;;;;;;;;;5064688;28;20024;-67
2022/05/30 02:46:46;;;;;;;13.15;6.30;;;;;;;;;;5012909;28;20063;-68
2022/05/30 02:49:15;;;;;;;16.13;7.32;;;;;;;;;;5058578;28;20030;-66
2022/05/30 02:51:44;;;;;;;15.45;8.93;;;;;;;;;;5046688;28;20286;-67
2022/05/30 02:54:12;;;;;;;17.70;10.57;;;;;;;;;;5038985;28;20048;-67
2022/05/30 02:56:43;;;;;;;22.67;14.60;;;;;;;;;;5034412;28;20043;-67
2022/05/30 02:59:13;;;;;;;22.83;14.75;;;;;;;;;;5033228;28;20102;-67
2022/05/30 03:01:40;;;;;;;21.08;13.80;;;;;;;;;;5039755;28;20032;-66
2022/05/30 03:04:07;;;;;;;24.92;15.75;;;;;;;;;;5034338;28;20044;-67
2022/05/30 03:06:33;;;;;;;23.80;16.83;;;;;;;;;;5018017;28;20032;-68
2022/05/30 03:08:59;;;;;;;;;;;;;;;;;;5035718;28;20048;-67
2022/05/30 03:11:27;;;;;;;24.00;16.30;;;;;;;;;;5034717;28;19919;-66
2022/05/30 03:13:56;;;;;;;25.20;16.50;;;;;;;;;;5034675;28;20676;-67
2022/05/30 03:16:23;;;;;;;21.90;15.63;;;;;;;;;;5018838;28;20031;-67
2022/05/30 03:18:53;;;;;;;26.48;16.33;;;;;;;;;;5038756;28;20039;-68
2022/05/30 03:21:22;;;;;;;24.50;15.95;;;;;;;;;;5034897;28;20068;-66
2022/05/30 03:23:48;;;;;;;26.15;16.30;;;;;;;;;;5038037;28;20067;-67
2022/05/30 03:26:16;;;;;;;;;;;;;;;;;;5039120;28;20037;-67
2022/05/30 03:28:43;;;;;;;19.30;12.73;;;;;;;;;;5041252;28;19913;-67
2022/05/30 03:31:10;;;;;;;22.70;13.07;;;;;;;;;;5039243;28;20056;-66
2022/05/30 03:33:36;;;;;;;;;;;;;;;;;;5043929;28;20063;-66
2022/05/30 03:36:07;;;;;;;21.08;13.13;;;;;;;;;;5046455;28;20537;-66
2022/05/30 03:38:35;;;;;;;20.90;14.68;;;;;;;;;;5011358;28;20060;-67
2022/05/30 03:41:03;;;;;;;25.45;16.40;;;;;;;;;;5024591;28;20037;-66
2022/05/30 03:43:30;;;;;;;25.30;16.08;;;;;;;;;;5029811;28;20839;-66
2022/05/30 03:45:59;;;;;;;25.40;15.90;;;;;;;;;;5018878;28;20052;-66
2022/05/30 03:48:27;;;;;;;23.65;14.57;;;;;;;;;;5030971;28;20048;-66
2022/05/30 03:50:54;;;;;;;24.45;15.95;;;;;;;;;;5035563;28;20060;-67
2022/05/30 03:53:23;;;;;;;25.10;17.25;;;;;;;;;;5043900;28;20043;-67
2022/05/30 03:55:51;;;;;;;27.05;16.58;;;;;;;;;;5062140;28;20581;-67
2022/05/30 03:58:18;;;;;;;26.63;16.55;;;;;;;;;;5057071;28;20493;-67
2022/05/30 04:00:45;;;;;;;25.00;15.45;;;;;;;;;;5018511;28;20036;-66
2022/05/30 04:03:16;;;;;;;22.88;14.15;;;;;;;;;;5015106;28;20478;-69
2022/05/30 04:05:42;;;;;;;21.08;13.05;;;;;;;;;;5005526;28;20092;-68
2022/05/30 04:08:09;;;;;;;20.10;12.82;;;;;;;;;;5012785;28;20128;-66
2022/05/30 04:10:36;;;;;;;;;;;;;;;;;;5020580;28;20124;-66
2022/05/30 04:13:10;;;;;;;21.20;13.63;;;;;;;;;;5024038;28;20015;-66
2022/05/30 04:15:39;;;;;;;21.50;14.55;;;;;;;;;;5019532;28;20029;-69
2022/05/30 04:18:08;;;;;;;22.15;15.05;;;;;;;;;;5022823;28;20040;-69
2022/05/30 04:20:36;;;;;;;25.55;14.60;;;;;;;;;;5011931;28;20052;-64
2022/05/30 04:23:05;;;;;;;24.17;14.30;;;;;;;;;;5014757;28;20052;-67
2022/05/30 04:25:34;;;;;;;23.90;14.45;;;;;;;;;;5019525;28;20220;-67
2022/05/30 04:28:03;;;;;;;23.55;14.10;;;;;;;;;;5004977;28;20102;-66
2022/05/30 04:30:31;;;;;;;25.08;14.02;;;;;;;;;;5016725;28;20605;-69
2022/05/30 04:32:58;;;;;;;27.08;15.57;;;;;;;;;;5003811;28;20047;-66
2022/05/30 04:35:26;;;;;;;26.42;15.13;;;;;;;;;;5018590;28;20037;-67
2022/05/30 04:37:52;;;;;;;25.98;13.60;;;;;;;;;;4987347;28;20348;-66
2022/05/30 04:40:20;;;;;;;23.30;13.38;;;;;;;;;;5022053;28;20720;-67
2022/05/30 04:42:48;;;;;;;18.48;13.15;;;;;;;;;;5021054;28;20052;-67
2022/05/30 04:45:17;;;;;;;21.33;12.00;;;;;;;;;;5013781;28;20159;-69
2022/05/30 04:47:45;;;;;;;21.55;12.75;;;;;;;;;;5005185;28;20901;-69
2022/05/30 04:50:17;;;;;;;20.20;11.30;;;;;;;;;;5021656;28;20873;-69
2022/05/30 04:52:45;;;;;;;21.27;11.02;;;;;;;;;;5051989;28;20040;-68
2022/05/30 04:55:12;;;;;;;19.25;10.85;;;;;;;;;;5038295;28;20123;-68
2022/05/30 04:57:49;;;;;;;19.83;11.02;;;;;;;;;;5061561;28;20032;-68
2022/05/30 05:00:19;;;;;;;19.55;9.90;;;;;;;;;;5023482;28;20039;-68
2022/05/30 05:02:49;;;;;;;18.70;10.38;;;;;;;;;;5043844;28;20409;-68
2022/05/30 05:05:18;;;;;;;18.55;10.00;;;;;;;;;;5026913;28;20229;-68
2022/05/30 05:08:00;;;;;;;29.75;9.73;;;;;;;;;;5059845;28;20414;-67
2022/05/30 05:10:41;;;;;;;17.20;8.30;;;;;;;;;;5054504;28;20032;-68
2022/05/30 05:13:09;;;;;;;17.70;7.35;;;;;;;;;;5060945;28;20041;-67
2022/05/30 05:15:36;;;;;;;17.35;6.28;;;;;;;;;;5063182;28;20038;-68
2022/05/30 05:18:05;;;;;;;14.57;5.68;;;;;;;;;;5065482;28;20128;-68
2022/05/30 05:20:43;;;;;;;15.00;5.90;;;;;;;;;;5060320;28;20485;-68
2022/05/30 05:23:11;;;;;;;13.43;4.95;;;;;;;;;;5059290;28;20048;-68
2022/05/30 05:25:40;;;;;;;14.60;5.57;;;;;;;;;;5030769;28;20044;-68
2022/05/30 05:28:08;;;;;;;12.52;4.90;;;;;;;;;;5027876;28;20683;-68
2022/05/30 05:30:37;;;;;;;13.23;5.28;;;;;;;;;;5064841;28;20078;-68
2022/05/30 05:33:04;;;;;;;12.80;4.78;;;;;;;;;;5048572;28;20052;-69
2022/05/30 05:35:31;;;;;;;14.70;4.90;;;;;;;;;;5061444;28;20378;-68
2022/05/30 05:38:00;;;;;;;13.40;4.72;;;;;;;;;;5064357;28;20019;-67
2022/05/30 05:40:28;;;;;;;12.55;4.20;;;;;;;;;;5039790;28;20040;-67
2022/05/30 05:42:57;;;;;;;14.50;5.05;;;;;;;;;;5061911;28;20907;-68
2022/05/30 05:45:24;;;;;;;13.50;4.72;;;;;;;;;;5040809;28;20550;-68
2022/05/30 05:47:54;;;;;;;11.50;4.32;;;;;;;;;;5061909;28;20046;-68
2022/05/30 05:50:20;;;;;;;12.10;4.50;;;;;;;;;;5032518;28;20075;-68
2022/05/30 05:52:50;;;;;;;13.65;4.78;;;;;;;;;;5036061;28;20094;-67
2022/05/30 05:55:16;;;;;;;13.55;4.70;;;;;;;;;;5028192;28;20166;-67
2022/05/30 05:57:46;;;;;;;12.75;4.50;;;;;;;;;;5034134;28;20295;-67
2022/05/30 06:00:14;;;;;;;16.88;4.70;;;;;;;;;;5030822;28;20347;-68
2022/05/30 06:02:42;;;;;;;11.02;4.25;;;;;;;;;;5052175;28;20076;-66
2022/05/30 06:05:09;;;;;;;11.70;4.57;;;;;;;;;;5022892;28;20045;-66
2022/05/30 06:07:35;;;;;;;13.77;5.10;;;;;;;;;;5037565;28;20036;-67
2022/05/30 06:10:06;;;;;;;15.15;4.72;;;;;;;;;;5041049;28;20059;-67
2022/05/30 06:12:37;;;;;;;16.33;5.43;;;;;;;;;;5021132;28;20146;-67
2022/05/30 06:15:07;;;;;;;19.58;5.78;;;;;;;;;;5036373;28;20472;-67
2022/05/30 06:17:34;;;;;;;17.33;5.70;;;;;;;;;;5021281;28;20105;-67
2022/05/30 06:20:01;;;;;;;19.05;5.85;;;;;;;;;;5039099;28;20038;-67
2022/05/30 06:22:30;;;;;;;18.00;5.60;;;;;;;;;;5036908;28;20097;-66
2022/05/30 06:24:57;;;;;;;21.08;5.80;;;;;;;;;;5037961;28;20086;-67
2022/05/30 06:27:26;;;;;;;21.65;5.93;;;;;;;;;;5014816;28;20127;-67
2022/05/30 06:29:54;;;;;;;23.00;6.57;;;;;;;;;;5038709;28;20381;-67
2022/05/30 06:32:21;;;;;;;20.63;6.22;;;;;;;;;;5036608;28;20070;-66
2022/05/30 06:34:51;;;;;;;23.10;6.20;;;;;;;;;;5033226;28;20152;-66
2022/05/30 06:37:18;;;;;;;18.30;5.47;;;;;;;;;;5000436;28;20538;-67
2022/05/30 06:39:46;;;;;;;25.58;6.57;;;;;;;;;;5022695;28;20846;-66
2022/05/30 06:42:14;;;;;;;22.73;7.38;;;;;;;;;;5016950;28;20041;-67
2022/05/30 06:44:41;;;;;;;26.20;7.18;;;;;;;;;;5027465;28;20086;-66
2022/05/30 06:47:09;;;;;;;20.42;5.95;;;;;;;;;;5010854;28;20122;-66
2022/05/30 06:49:38;;;;;;;21.88;5.93;;;;;;;;;;5035252;28;20025;-67
2022/05/30 06:52:08;;;;;;;25.48;7.20;;;;;;;;;;5035863;28;20033;-66
2022/05/30 06:54:36;;;;;;;21.98;5.72;;;;;;;;;;5028341;28;20048;-66
2022/05/30 06:59:50;;;;;;;21.30;5.80;;;;;;;;;;5033043;28;20525;-66
2022/05/30 07:02:18;;;;;;;24.00;5.80;;;;;;;;;;5022404;28;20033;-67
2022/05/30 07:04:45;;;;;;;22.13;5.88;;;;;;;;;;5028198;28;20035;-67
2022/05/30 07:07:12;;;;;;;23.33;6.43;;;;;;;;;;5028459;28;20047;-66
2022/05/30 07:09:41;;;;;;;20.38;5.43;;;;;;;;;;5028731;28;20028;-66
2022/05/30 07:12:11;;;;;;;27.05;6.43;;;;;;;;;;5014318;28;20341;-66
2022/05/30 07:14:40;;;;;;;23.27;6.45;;;;;;;;;;5023520;28;20503;-67
2022/05/30 07:17:13;;;;;;;22.05;5.35;;;;;;;;;;5030291;28;20453;-68
2022/05/30 07:19:39;;;;;;;21.85;5.20;;;;;;;;;;5034050;28;20409;-67
2022/05/30 07:22:07;;;;;;;24.88;5.20;;;;;;;;;;5026012;28;20059;-68
2022/05/30 07:24:35;;;;;;;20.40;5.50;;;;;;;;;;5019587;28;20037;-67
2022/05/30 07:27:04;;;;;;;22.45;5.55;;;;;;;;;;5032277;28;20029;-68
2022/05/30 07:29:31;;;;;;;19.83;5.55;;;;;;;;;;5038661;28;20473;-68
2022/05/30 07:32:00;;;;;;;24.38;5.45;;;;;;;;;;5060729;28;20806;-66
2022/05/30 07:34:26;;;;;;;20.92;5.15;;;;;;;;;;5027663;28;20386;-66
2022/05/30 07:36:55;;;;;;;20.63;5.05;;;;;;;;;;5062425;28;20464;-66
2022/05/30 07:39:22;;;;;;;24.10;5.68;;;;;;;;;;5039924;28;20039;-66
2022/05/30 07:41:49;;;;;;;19.08;4.75;;;;;;;;;;5062254;28;20036;-67
2022/05/30 07:44:15;;;;;;;20.35;5.93;;;;;;;;;;5061471;28;20028;-67
2022/05/30 07:46:47;;;;;;;22.15;5.57;;;;;;;;;;5062099;28;20460;-66
2022/05/30 07:49:14;;;;;;;21.38;5.95;;;;;;;;;;5028607;28;20047;-66
2022/05/30 07:51:48;;;;;;;22.65;5.45;;;;;;;;;;5057836;28;20486;-66
2022/05/30 07:54:15;;;;;;;21.77;5.18;;;;;;;;;;5039449;28;20099;-66
2022/05/30 07:56:42;;;;;;;21.67;5.30;;;;;;;;;;5060442;28;20032;-66
2022/05/30 07:59:08;;;;;;;19.77;4.90;;;;;;;;;;5041289;28;20035;-66
2022/05/30 08:01:38;;;;;;;20.15;5.22;;;;;;;;;;5017630;28;20062;-67
2022/05/30 08:04:12;;;;;;;20.90;5.28;;;;;;;;;;5051819;28;20418;-66
2022/05/30 08:06:40;;;;;;;25.05;5.15;;;;;;;;;;5042259;28;20135;-66
2022/05/30 08:09:07;;;;;;;21.13;4.72;;;;;;;;;;5034082;28;20474;-66
2022/05/30 08:11:34;;;;;;;17.13;4.47;;;;;;;;;;5016799;28;20091;-67
2022/05/30 08:14:01;;;;;;;16.15;3.90;;;;;;;;;;5023877;28;20518;-66
2022/05/30 08:16:29;;;;;;;18.92;4.57;;;;;;;;;;5022848;28;20177;-66
2022/05/30 08:18:57;;;;;;;18.00;4.30;;;;;;;;;;5008479;28;20051;-66
2022/05/30 08:21:25;;;;;;;17.95;4.57;;;;;;;;;;5018973;28;20044;-66
2022/05/30 08:23:56;;;;;;;18.55;4.50;;;;;;;;;;5019884;28;20057;-67
2022/05/30 08:26:22;;;;;;;14.80;4.55;;;;;;;;;;5019202;28;20029;-67
2022/05/30 08:28:50;;;;;;;18.40;4.00;;;;;;;;;;5006122;28;20037;-67
2022/05/30 08:31:18;;;;;;;19.95;4.32;;;;;;;;;;5010743;28;20056;-67
2022/05/30 08:33:46;;;;;;;15.10;3.85;;;;;;;;;;5017806;28;20040;-66
2022/05/30 08:36:14;;;;;;;15.93;3.42;;;;;;;;;;5003378;28;20552;-67
2022/05/30 08:38:43;;;;;;;18.20;4.28;;;;;;;;;;4974300;28;20041;-67
2022/05/30 08:44:02;;;;;;;19.00;4.60;;;;;;;;;;4979467;28;20893;-67
2022/05/30 08:46:46;;;;;;;19.00;4.45;;;;;;;;;;4974286;28;21200;-66
2022/05/30 08:49:26;;;;;;;21.63;4.45;;;;;;;;;;4972177;28;20154;-67
2022/05/30 08:51:54;;;;;;;17.60;4.25;;;;;;;;;;4957102;28;20021;-66
2022/05/30 08:54:40;;;;;;;17.42;3.80;;;;;;;;;;4972073;28;20132;-66
2022/05/30 08:57:16;;;;;;;22.73;4.75;;;;;;;;;;4977384;28;20032;-68
2022/05/30 09:00:16;;;;;;;20.23;4.57;;;;;;;;;;4958760;28;20037;-67
2022/05/30 09:02:55;;;;;;;18.15;4.35;;;;;;;;;;4947124;28;20461;-68
2022/05/30 09:05:32;;;;;;;19.92;4.30;;;;;;;;;;5008324;28;20032;-68
2022/05/30 09:08:04;;;;;;;21.27;4.80;;;;;;;;;;4998960;28;20036;-68
2022/05/30 09:10:34;;;;;;;19.92;4.43;;;;;;;;;;5004047;28;20063;-68
2022/05/30 09:13:19;;;;;;;19.58;4.65;;;;;;;;;;5013942;28;20040;-67
2022/05/30 09:16:16;;;;;;;17.23;4.50;;;;;;;;;;5054685;28;20492;-67
2022/05/30 09:18:51;;;;;;;19.23;4.25;;;;;;;;;;5039423;28;20371;-66
2022/05/30 09:21:18;;;;;;;17.05;3.90;;;;;;;;;;5028788;28;20105;-69
2022/05/30 09:23:45;;;;;;;16.17;4.10;;;;;;;;;;5057954;28;20071;-66
2022/05/30 09:26:17;;;;;;;20.00;4.43;;;;;;;;;;5045594;28;20032;-66
2022/05/30 09:28:48;;;;;;;19.90;4.50;;;;;;;;;;5063461;28;20044;-66
2022/05/30 09:31:23;;;;;;;17.30;3.95;;;;;;;;;;5062247;28;20426;-66
2022/05/30 09:33:55;;;;;;;19.08;4.13;;;;;;;;;;5065350;28;20450;-66
2022/05/30 09:36:31;;;;;;;18.75;4.40;;;;;;;;;;5059648;28;20056;-66
2022/05/30 09:39:00;;;;;;;16.13;3.50;;;;;;;;;;5049294;28;20380;-66
2022/05/30 09:41:38;;;;;;;15.40;3.78;;;;;;;;;;5062348;28;20028;-66
2022/05/30 09:44:25;;;;;;;19.60;4.25;;;;;;;;;;5048606;28;20491;-66
2022/05/30 09:46:59;;;;;;;16.75;4.25;;;;;;;;;;5067957;28;20028;-67
2022/05/30 09:49:43;;;;;;;14.95;3.75;;;;;;;;;;5061432;28;20052;-67
2022/05/30 09:52:28;;;;;;;16.38;3.88;;;;;;;;;;5062887;28;20024;-67
2022/05/30 09:54:57;;;;;;;19.45;3.88;;;;;;;;;;5065452;28;20055;-67
2022/05/30 09:57:43;;;;;;;16.77;4.25;;;;;;;;;;5046821;28;20031;-66
2022/05/30 10:00:23;;;;;;;19.45;4.10;;;;;;;;;;5045757;28;20444;-67
2022/05/30 10:03:03;;;;;;;17.20;3.55;;;;;;;;;;5066336;28;20642;-66
2022/05/30 10:05:32;;;;;;;14.00;3.13;;;;;;;;;;5042289;28;20500;-66
2022/05/30 10:08:03;;;;;;;15.95;3.15;;;;;;;;;;5043008;28;20042;-66
2022/05/30 10:10:31;;;;;;;13.65;3.42;;;;;;;;;;5065370;28;20144;-66
2022/05/30 10:13:02;;;;;;;16.23;3.80;;;;;;;;;;5068751;28;20032;-66
2022/05/30 10:15:43;;;;;;;16.23;3.45;;;;;;;;;;5064016;28;20133;-67
2022/05/30 10:18:18;;;;;;;14.98;3.63;;;;;;;;;;5064850;28;20553;-66
2022/05/30 10:21:05;;;;;;;16.60;3.35;;;;;;;;;;5067682;28;20032;-66
2022/05/30 10:29:41;;;;;;;17.75;3.72;;;;;;;;;;5065911;28;20091;-66
2022/05/30 10:32:26;;;;;;;15.77;3.70;;;;;;;;;;5055864;28;20033;-66
2022/05/30 10:35:17;;;;;;;15.60;3.85;;;;;;;;;;5065258;28;20537;-66
2022/05/30 10:38:03;;;;;;;18.50;4.15;;;;;;;;;;5067107;28;20039;-66
2022/05/30 10:40:36;;;;;;;18.05;4.38;;;;;;;;;;5063166;28;20466;-66
2022/05/30 10:43:25;;;;;;;21.40;4.60;;;;;;;;;;5036088;28;20668;-66
2022/05/30 10:46:10;;;;;;;21.33;4.20;;;;;;;;;;5066725;28;20045;-66
2022/05/30 10:48:43;;;;;;;22.27;3.92;;;;;;;;;;5067893;28;20032;-66
2022/05/30 10:51:17;;;;;;;22.27;4.55;;;;;;;;;;5031365;28;20044;-65
2022/05/30 10:53:47;;;;;;;;;;;;;;;;;;5069509;28;20032;-66
2022/05/30 10:56:40;;;;;;;20.95;4.78;;;;;;;;;;5010525;28;19912;-66
2022/05/30 10:59:25;;;;;;;19.73;4.57;;;;;;;;;;5070523;28;20032;-66
2022/05/30 11:01:55;;;;;;;17.92;3.95;;;;;;;;;;5066467;28;20353;-66
2022/05/30 11:04:40;;;;;;;23.30;4.97;;;;;;;;;;5067827;28;20036;-66
2022/05/30 11:07:26;;;;;;;20.33;4.63;;;;;;;;;;5065830;28;20674;-66
2022/05/30 11:09:57;;;;;;;24.25;4.65;;;;;;;;;;5000661;28;20077;-66
2022/05/30 11:12:33;;;;;;;21.08;4.78;;;;;;;;;;5032709;28;20045;-74
2022/05/30 11:15:26;;;;;;;20.67;4.60;;;;;;;;;;5029948;28;20053;-73
2022/05/30 11:17:56;;;;;;;18.77;4.00;;;;;;;;;;5031983;28;20060;-74
2022/05/30 11:20:32;;;;;;;15.98;3.95;;;;;;;;;;5012374;28;20042;-75
2022/05/30 11:23:01;;;;;;;24.05;5.00;;;;;;;;;;5027252;28;20060;-72
2022/05/30 11:25:46;;;;;;;22.85;4.35;;;;;;;;;;4990687;28;22201;-75
2022/05/30 11:28:31;;;;;;;18.08;4.10;;;;;;;;;;5028558;28;20090;-73
2022/05/30 11:31:09;;;;;;;22.23;4.78;;;;;;;;;;5020686;28;20082;-73
2022/05/30 11:33:48;;;;;;;21.10;4.82;;;;;;;;;;5005817;28;20033;-72
2022/05/30 11:36:37;;;;;;;26.23;4.80;;;;;;;;;;5023736;28;20052;-73
2022/05/30 11:39:07;;;;;;;21.90;5.03;;;;;;;;;;5006053;28;20458;-74
2022/05/30 11:41:48;;;;;;;20.65;5.25;;;;;;;;;;4983706;28;20137;-73
2022/05/30 11:44:34;;;;;;;19.58;4.40;;;;;;;;;;4983098;28;20072;-70
2022/05/30 11:47:01;;;;;;;;;;;;;;;;;;4982526;28;20038;-72
2022/05/30 11:49:33;;;;;;;19.23;4.72;;;;;;;;;;4981610;28;20329;-74
2022/05/30 11:52:10;;;;;;;21.00;4.35;;;;;;;;;;4983615;28;20869;-73
2022/05/30 11:54:47;;;;;;;19.98;4.38;;;;;;;;;;5017695;28;20133;-73
2022/05/30 11:57:26;;;;;;;20.63;4.65;;;;;;;;;;5020039;28;20036;-72
2022/05/30 12:00:13;;;;;;;24.63;4.45;;;;;;;;;;5024783;28;20056;-73
2022/05/30 12:02:57;;;;;;;18.10;4.40;;;;;;;;;;5023712;28;20088;-74
2022/05/30 12:05:32;;;;;;;16.83;4.50;;;;;;;;;;5016216;28;20060;-73
2022/05/30 12:08:32;;;;;;;20.73;4.65;;;;;;;;;;5020590;28;20029;-74
2022/05/30 12:11:30;;;;;;;19.90;4.10;;;;;;;;;;4981512;28;20796;-72
2022/05/30 12:14:19;;;;;;;16.38;4.13;;;;;;;;;;5002430;28;20187;-72
2022/05/30 12:16:48;;;;;;;16.17;3.92;;;;;;;;;;4996124;28;20041;-74
2022/05/30 12:24:56;;;;;;;16.80;3.90;;;;;;;;;;4997108;28;20682;-69
2022/05/30 12:27:34;;;;;;;15.07;3.58;;;;;;;;;;5000139;28;20049;-73
2022/05/30 12:30:32;;;;;;;18.40;3.78;;;;;;;;;;5002644;28;20041;-73
2022/05/30 12:33:00;;;;;;;19.95;3.60;;;;;;;;;;5018576;28;20147;-75
2022/05/30 12:35:39;;;;;;;13.88;3.35;;;;;;;;;;5037648;28;20064;-73
2022/05/30 12:38:09;;;;;;;17.15;3.80;;;;;;;;;;5036778;28;20040;-73
2022/05/30 12:40:42;;;;;;;14.40;3.67;;;;;;;;;;5022738;28;20032;-73
2022/05/30 12:43:29;;;;;;;15.63;3.58;;;;;;;;;;5024877;28;20044;-74
2022/05/30 12:46:18;;;;;;;14.80;3.45;;;;;;;;;;5037330;28;20029;-73
2022/05/30 12:48:56;;;;;;;15.30;3.72;;;;;;;;;;4958885;28;20325;-73
2022/05/30 12:51:40;;;;;;;15.52;3.05;;;;;;;;;;4954875;28;20041;-73
2022/05/30 12:54:09;;;;;;;14.60;3.10;;;;;;;;;;4956329;28;20038;-72
2022/05/30 12:56:44;;;;;;;15.85;2.97;;;;;;;;;;4961943;28;20105;-73
2022/05/30 12:59:32;;;;;;;14.50;3.00;;;;;;;;;;4958318;28;20077;-72
2022/05/30 13:02:00;;;;;;;14.80;3.13;;;;;;;;;;4951980;28;20588;-73
2022/05/30 13:04:29;;;;;;;16.40;3.45;;;;;;;;;;4957956;28;20038;-75
2022/05/30 13:07:04;;;;;;;13.70;2.88;;;;;;;;;;4957157;28;20039;-73
2022/05/30 13:09:48;;;;;;;16.27;3.45;;;;;;;;;;4959908;28;20151;-73
2022/05/30 13:12:21;;;;;;;14.77;3.55;;;;;;;;;;4959978;28;20042;-73
2022/05/30 13:15:10;;;;;;;17.98;3.50;;;;;;;;;;4964002;28;20133;-73
2022/05/30 13:18:03;;;;;;;14.55;3.40;;;;;;;;;;4957221;28;21265;-74
2022/05/30 13:20:32;;;;;;;13.82;2.97;;;;;;;;;;4962879;28;20692;-74
2022/05/30 13:23:03;;;;;;;16.27;3.33;;;;;;;;;;4966574;28;20223;-75
2022/05/30 13:25:58;;;;;;;13.50;3.00;;;;;;;;;;4981472;28;20460;-75
2022/05/30 13:28:33;;;;;;;12.15;2.95;;;;;;;;;;5056159;28;20082;-74
2022/05/30 13:31:08;;;;;;;13.80;2.85;;;;;;;;;;5070107;28;20441;-73
2022/05/30 13:33:53;;;;;;;13.77;3.40;;;;;;;;;;5067838;28;20031;-74
2022/05/30 13:36:19;;;;;;;;;;;;;;;;;;5064278;28;20075;-74
2022/05/30 13:38:48;;;;;;;11.57;2.75;;;;;;;;;;5051659;28;19948;-73
2022/05/30 13:41:22;;;;;;;13.48;2.90;;;;;;;;;;5049754;28;20629;-72
2022/05/30 13:43:55;;;;;;;16.95;3.17;;;;;;;;;;5067507;28;20126;-75
2022/05/30 13:46:29;;;;;;;13.30;3.05;;;;;;;;;;5041456;28;20402;-73
2022/05/30 13:48:58;;;;;;;14.40;3.08;;;;;;;;;;5062363;28;20132;-74
2022/05/30 13:51:30;;;;;;;10.45;2.75;;;;;;;;;;5039927;28;20048;-73
2022/05/30 13:54:02;;;;;;;10.93;2.70;;;;;;;;;;5029093;28;20362;-72
2022/05/30 13:56:43;;;;;;;13.23;2.95;;;;;;;;;;5028816;28;20921;-73
2022/05/30 13:59:26;;;;;;;12.32;2.88;;;;;;;;;;5045260;28;20055;-72
2022/05/30 14:01:56;;;;;;;13.23;2.85;;;;;;;;;;5064908;28;20025;-73
2022/05/30 14:04:27;;;;;;;16.23;2.75;;;;;;;;;;5040350;28;20043;-73
2022/05/30 14:06:59;;;;;;;14.07;2.83;;;;;;;;;;5053108;28;20370;-73
2022/05/30 14:09:27;;;;;;;11.98;2.78;;;;;;;;;;5059080;28;20034;-75
2022/05/30 14:11:54;;;;;;;14.43;2.95;;;;;;;;;;5014751;28;20047;-74
2022/05/30 14:14:40;;;;;;;12.15;2.83;;;;;;;;;;4994548;28;20088;-73
2022/05/30 14:17:08;;;;;;;12.75;2.80;;;;;;;;;;5017731;28;21101;-73
2022/05/30 14:19:40;;;;;;;10.80;2.30;;;;;;;;;;5002559;28;20049;-72
2022/05/30 14:22:12;;;;;;;16.60;2.90;;;;;;;;;;5039864;28;20036;-71
2022/05/30 14:24:45;;;;;;;11.07;2.53;;;;;;;;;;5041125;28;21007;-71
2022/05/30 14:27:20;;;;;;;14.57;2.95;;;;;;;;;;5018152;28;20441;-73
2022/05/30 14:29:47;;;;;;;11.40;2.40;;;;;;;;;;5009715;28;20044;-72
2022/05/30 14:32:22;;;;;;;10.40;2.50;;;;;;;;;;5008935;28;20029;-71
2022/05/30 14:34:49;;;;;;;;;;;;;;;;;;5012609;28;20037;-71
2022/05/30 14:37:25;;;;;;;12.07;2.67;;;;;;;;;;5013706;28;19920;-71
2022/05/30 14:39:59;;;;;;;11.80;2.25;;;;;;;;;;5019751;28;20773;-71
2022/05/30 14:42:27;;;;;;;11.05;2.40;;;;;;;;;;5014325;28;20033;-70
2022/05/30 14:44:54;;;;;;;9.93;2.38;;;;;;;;;;5014310;28;20749;-71
2022/05/30 14:47:30;;;;;;;11.88;2.35;;;;;;;;;;5020676;28;20033;-72
2022/05/30 14:50:11;;;;;;;11.05;2.78;;;;;;;;;;5010007;28;20048;-70
2022/05/30 14:52:49;;;;;;;9.73;2.22;;;;;;;;;;5020830;28;20041;-70
2022/05/30 14:55:34;;;;;;;11.05;2.30;;;;;;;;;;5016874;28;20132;-71
2022/05/30 14:58:28;;;;;;;10.30;2.30;;;;;;;;;;5005145;28;20172;-70
2022/05/30 15:00:55;;;;;;;15.57;2.80;;;;;;;;;;4976016;28;20564;-72
2022/05/30 15:06:09;;;;;;;11.30;2.53;;;;;;;;;;5037117;28;20118;-72
2022/05/30 15:08:37;;;;;;;11.05;1.95;;;;;;;;;;5038671;28;21089;-71
2022/05/30 15:11:16;;;;;;;10.20;2.40;;;;;;;;;;5051847;28;20036;-71
2022/05/30 15:13:44;;;;;;;10.90;2.20;;;;;;;;;;5062496;28;20063;-71
2022/05/30 15:16:11;;;;;;;9.13;1.80;;;;;;;;;;5062647;28;20039;-70
2022/05/30 15:18:38;;;;;;;9.85;2.10;;;;;;;;;;5068128;28;20020;-70
2022/05/30 15:21:07;;;;;;;9.43;1.80;;;;;;;;;;5067872;28;20058;-71
2022/05/30 15:23:36;;;;;;;8.45;1.90;;;;;;;;;;5026755;28;20043;-71
2022/05/30 15:26:05;;;;;;;9.02;1.85;;;;;;;;;;5053423;28;20059;-71
2022/05/30 15:28:39;;;;;;;10.88;1.95;;;;;;;;;;5063574;28;20499;-69